Tracy, MN

9:12 AM CDT on July 24, 2016 (GMT -0500)
Tracy

Weather History for KTKC - January, 2014

Change the Weather History Date:

Sunday, January 5, 2014

  Actual Average (KMML) Record (KMML)
Temperature  
Mean Temperature -9 °F -  
Max Temperature -2 °F 18 °F 62 °F (2012)
Min Temperature -16 °F 1 °F -22 °F (1976)
Degree Days  
Heating Degree Days 74    
Moisture  
Dew Point -17 °F    
Average Humidity 67    
Maximum Humidity 75    
Minimum Humidity 56    
Precipitation  
Precipitation 0.00 in - - ()
Sea Level Pressure  
Sea Level Pressure 30.36 in    
Wind  
Wind Speed 13 mph (NW)    
Max Wind Speed 24 mph    
Max Gust Speed 34 mph    
Visibility 8 miles    
Events Snow    
Averages and records for this station are not official NWS values.
T = Trace of Precipitation, MM = Missing Value Source: NWS Daily Summary

Daily Weather History Graph

Daily Weather History Graph

Search for Another Location

Airport or City:

Trip Planner

Search our weather history database for the weather conditions in past years. The results will help you decide how hot, cold, wet, or windy it might be!

Date:

Astronomy

Jan. 05, 2014 Rise Set
Actual Time 7:57 AM CST 4:58 PM CST
Civil Twilight 7:25 AM CST 5:31 PM CST
Nautical Twilight 6:48 AM CST 6:07 PM CST
Astronomical Twilight 6:13 AM CST 6:42 PM CST
Moon 10:28 AM CST (1/5) 10:40 PM CST (1/5)
Length of Visible Light 10h 06m
Length of Day
9h 00m
Waxing Crescent, 25% of the Moon is Illuminated
Jan 5
Waxing Crescent
Jan 7
First Quarter
Jan 15
Full
Jan 23
Last Quarter
Jan 30
New

Hourly Weather History & Observations

Time (CST) Temp. Windchill Dew Point Humidity Pressure Visibility Wind Dir Wind Speed Gust Speed Precip Events Conditions
12:18 AM -3.3 °F -20.3 °F -9.8 °F 74% 30.26 in 10.0 mi North 10.4 mph - N/A   Clear
12:37 AM -3.5 °F -22.3 °F -10.3 °F 73% 30.27 in 10.0 mi NNW 12.7 mph 18.4 mph N/A   Clear
12:57 AM -3.3 °F -23.6 °F -11.6 °F 68% 30.27 in 10.0 mi NNW 15.0 mph 21.9 mph N/A   Clear
1:18 AM -4.0 °F -24.5 °F -12.1 °F 68% 30.28 in 10.0 mi NNW 15.0 mph - N/A   Clear
1:38 AM -4.2 °F -20.4 °F -12.1 °F 69% 30.29 in 10.0 mi NNW 9.2 mph - N/A   Clear
1:57 AM -4.9 °F -17.4 °F -11.9 °F 72% 30.30 in 10.0 mi NNW 5.8 mph - N/A   Clear
2:18 AM -5.1 °F -23.5 °F -12.1 °F 72% 30.31 in 10.0 mi NNW 11.5 mph 16.1 mph N/A   Clear
2:38 AM -5.3 °F -22.8 °F -13.9 °F 66% 30.31 in 10.0 mi NNW 10.4 mph - N/A   Clear
2:57 AM -5.8 °F -24.4 °F -14.6 °F 66% 30.32 in 10.0 mi NNW 11.5 mph - N/A   Clear
3:17 AM -5.8 °F -23.4 °F -15.0 °F 65% 30.31 in 10.0 mi NNW 10.4 mph - N/A   Clear
3:38 AM -6.2 °F -22.8 °F -15.0 °F 66% 30.30 in 10.0 mi NNW 9.2 mph - N/A   Clear
3:58 AM -6.3 °F -25.0 °F -14.8 °F 67% 30.31 in 10.0 mi NW 11.5 mph - N/A   Clear
4:18 AM -6.0 °F -22.6 °F -14.6 °F 66% 30.31 in 10.0 mi NW 9.2 mph - N/A   Clear
4:38 AM -6.7 °F -23.5 °F -14.8 °F 68% 30.31 in 10.0 mi NNW 9.2 mph - N/A   Clear
4:57 AM -6.7 °F -23.5 °F -14.8 °F 68% 30.31 in 10.0 mi NNW 9.2 mph - N/A   Clear
5:18 AM -7.2 °F -23.0 °F -14.8 °F 70% 30.32 in 10.0 mi NW 8.1 mph - N/A   Clear
5:37 AM -8.1 °F -22.7 °F -15.2 °F 71% 30.33 in 10.0 mi NW 6.9 mph - N/A   Clear
5:57 AM -8.0 °F -26.1 °F -15.0 °F 71% 30.34 in 10.0 mi NW 10.4 mph - N/A   Clear
6:18 AM -7.2 °F -24.2 °F -14.8 °F 70% 30.34 in 10.0 mi NW 9.2 mph - N/A   Clear
6:37 AM -7.6 °F -26.6 °F -14.8 °F 71% 30.35 in 10.0 mi NW 11.5 mph - N/A   Clear
6:57 AM -7.6 °F -23.4 °F -15.0 °F 70% 30.35 in 10.0 mi NW 8.1 mph - N/A   Clear
7:18 AM -8.0 °F -23.9 °F -15.2 °F 71% 30.35 in 10.0 mi NW 8.1 mph - N/A   Clear
7:37 AM -8.9 °F -20.2 °F -15.9 °F 71% 30.36 in 10.0 mi WNW 4.6 mph - N/A   Clear
7:57 AM -9.0 °F - -16.1 °F 71% 30.35 in 10.0 mi Calm Calm - N/A   Clear
8:18 AM -9.0 °F - -15.9 °F 72% 30.36 in 10.0 mi Calm Calm - N/A   Clear
8:37 AM -8.3 °F - -15.9 °F 70% 30.37 in 10.0 mi Calm Calm - N/A   Clear
8:58 AM -8.0 °F - -15.7 °F 69% 30.37 in 10.0 mi Calm Calm - N/A   Clear
9:18 AM -7.4 °F - -15.5 °F 68% 30.37 in 10.0 mi Calm Calm - N/A   Clear
9:37 AM -6.7 °F -17.7 °F -14.8 °F 68% 30.38 in 10.0 mi West 4.6 mph - N/A   Clear
9:57 AM -5.8 °F -23.4 °F -14.4 °F 66% 30.38 in 10.0 mi WNW 10.4 mph - N/A   Clear
10:17 AM -4.4 °F -24.9 °F -13.0 °F 66% 30.38 in 10.0 mi NW 15.0 mph - N/A   Clear
10:38 AM -3.5 °F -23.8 °F -11.9 °F 67% 30.39 in 10.0 mi NW 15.0 mph - N/A   Clear
10:58 AM -3.3 °F -23.6 °F -11.9 °F 67% 30.38 in 10.0 mi NW 15.0 mph 20.7 mph N/A   Clear
11:18 AM -3.3 °F -25.5 °F -13.0 °F 63% 30.38 in 10.0 mi NNW 18.4 mph - N/A   Clear
11:38 AM -2.9 °F -24.4 °F -11.7 °F 66% 30.37 in 7.0 mi NW 17.3 mph 24.2 mph N/A   Scattered Clouds
11:57 AM -3.1 °F -24.7 °F -12.8 °F 63% 30.37 in 10.0 mi NNW 17.3 mph 24.2 mph N/A   Scattered Clouds
12:17 PM -2.6 °F -23.3 °F -12.3 °F 63% 30.37 in 10.0 mi NW 16.1 mph 23.0 mph N/A   Scattered Clouds
12:37 PM -2.6 °F -25.1 °F -11.6 °F 65% 30.35 in 10.0 mi NW 19.6 mph 25.3 mph N/A   Mostly Cloudy
12:58 PM -3.6 °F -26.0 °F -12.5 °F 66% 30.35 in 3.0 mi NW 18.4 mph 24.2 mph N/A   Haze
1:17 PM -3.5 °F -25.7 °F -12.8 °F 64% 30.34 in 5.0 mi NNW 18.4 mph 23.0 mph N/A   Haze
1:38 PM -2.9 °F -24.4 °F -11.9 °F 65% 30.34 in 5.0 mi NNW 17.3 mph 24.2 mph N/A   Haze
1:57 PM -4.4 °F -25.6 °F -11.7 °F 71% 30.34 in 2.0 mi NNW 16.1 mph 23.0 mph N/A   Haze
2:17 PM -4.9 °F -28.8 °F -12.6 °F 69% 30.35 in 1.8 mi NNW 20.7 mph 25.3 mph N/A   Haze
2:37 PM -5.8 °F -31.0 °F -14.1 °F 67% 30.36 in 3.0 mi NNW 23.0 mph 27.6 mph N/A   Haze
2:58 PM -7.1 °F -31.6 °F -13.9 °F 72% 30.37 in 0.8 mi NNW 20.7 mph 31.1 mph N/A Snow Light Snow
3:18 PM -7.6 °F -32.3 °F -14.8 °F 71% 30.38 in 1.2 mi NNW 20.7 mph 27.6 mph N/A Snow Light Snow
3:37 PM -7.6 °F -31.7 °F -14.8 °F 71% 30.38 in 2.0 mi NNW 19.6 mph 24.2 mph N/A   Haze
3:58 PM -8.1 °F -31.8 °F -14.6 °F 73% 30.38 in 0.8 mi NNW 18.4 mph 27.6 mph N/A Snow Light Snow
4:18 PM -8.5 °F -34.6 °F -15.7 °F 71% 30.38 in 0.8 mi NNW 23.0 mph 34.5 mph N/A Snow Light Snow
4:38 PM -9.0 °F -34.8 °F -15.0 °F 75% 30.39 in 0.5 mi NNW 21.9 mph 27.6 mph N/A Snow Light Snow
4:58 PM -9.8 °F -33.9 °F -15.9 °F 74% 30.40 in 0.5 mi NNW 18.4 mph 26.5 mph N/A Snow Light Snow
5:17 PM -10.5 °F -36.7 °F -17.5 °F 71% 30.40 in 1.2 mi NNW 21.9 mph 26.5 mph N/A   Haze
5:37 PM -10.8 °F -35.3 °F -17.9 °F 71% 30.40 in 1.8 mi NNW 18.4 mph - N/A Snow Light Snow
5:57 PM -10.8 °F -34.0 °F -18.4 °F 69% 30.40 in 4.0 mi NNW 16.1 mph 24.2 mph N/A   Haze
6:18 PM -11.0 °F -36.2 °F -17.5 °F 73% 30.40 in 1.0 mi NW 19.6 mph 24.2 mph N/A Snow Light Snow
6:38 PM -12.5 °F -40.4 °F -22.4 °F 61% 30.41 in 4.0 mi NW 24.2 mph 29.9 mph N/A   Haze
6:58 PM -13.0 °F -41.1 °F -23.6 °F 59% 30.41 in 10.0 mi NW 24.2 mph 31.1 mph N/A   Clear
7:17 PM -13.4 °F -39.3 °F -24.9 °F 56% 30.41 in 10.0 mi NW 19.6 mph 26.5 mph N/A   Clear
7:38 PM -13.9 °F -42.3 °F -24.2 °F 60% 30.41 in 10.0 mi NW 24.2 mph 29.9 mph N/A   Clear
7:58 PM -14.1 °F -42.0 °F -23.8 °F 62% 30.40 in 10.0 mi NW 23.0 mph 29.9 mph N/A   Clear
8:18 PM -14.1 °F -42.0 °F -23.1 °F 64% 30.40 in 10.0 mi NW 23.0 mph 27.6 mph N/A   Scattered Clouds
8:38 PM -14.8 °F -42.9 °F -24.7 °F 61% 30.40 in 10.0 mi NW 23.0 mph 27.6 mph N/A   Clear
8:57 PM -14.8 °F -40.5 °F -23.6 °F 65% 30.39 in 5.0 mi NW 18.4 mph 25.3 mph N/A   Haze
9:17 PM -15.3 °F -39.8 °F -25.6 °F 60% 30.39 in 10.0 mi NW 16.1 mph 27.6 mph N/A   Scattered Clouds
9:38 PM -15.7 °F -43.6 °F -25.6 °F 61% 30.38 in 10.0 mi NW 21.9 mph 25.3 mph N/A   Clear
9:58 PM -15.7 °F -42.3 °F -25.8 °F 60% 30.38 in 10.0 mi NW 19.6 mph 25.3 mph N/A   Clear
10:18 PM -15.9 °F -41.2 °F -26.3 °F 59% 30.38 in 10.0 mi NW 17.3 mph - N/A   Clear
10:37 PM -16.1 °F -43.4 °F -26.0 °F 61% 30.37 in 10.0 mi NW 20.7 mph 26.5 mph N/A   Clear
10:58 PM -16.1 °F -41.4 °F -25.6 °F 62% 30.37 in 10.0 mi NW 17.3 mph 25.3 mph N/A   Clear
11:17 PM -16.2 °F -41.7 °F -26.0 °F 61% 30.36 in 10.0 mi NW 17.3 mph 24.2 mph N/A   Clear
11:38 PM -16.6 °F -42.1 °F -25.8 °F 63% 30.36 in 10.0 mi NW 17.3 mph - N/A   Clear
11:58 PM -16.6 °F -41.4 °F -25.8 °F 63% 30.35 in 10.0 mi NW 16.1 mph 24.2 mph N/A   Clear